sensor_id;sensor_type;location;lat;lon;timestamp;temperature;humidity
5901;DHT22;2976;49.764;9.796;2023-12-20T00:02:16;4.30;99.90
5901;DHT22;2976;49.764;9.796;2023-12-20T00:04:42;4.30;99.90
5901;DHT22;2976;49.764;9.796;2023-12-20T00:07:07;4.30;99.90
5901;DHT22;2976;49.764;9.796;2023-12-20T00:09:33;4.30;99.90
5901;DHT22;2976;49.764;9.796;2023-12-20T00:11:58;4.30;99.90
5901;DHT22;2976;49.764;9.796;2023-12-20T00:14:24;4.30;99.90
5901;DHT22;2976;49.764;9.796;2023-12-20T00:16:49;4.40;99.90
5901;DHT22;2976;49.764;9.796;2023-12-20T00:19:15;4.30;99.90
5901;DHT22;2976;49.764;9.796;2023-12-20T00:21:40;4.40;99.90
5901;DHT22;2976;49.764;9.796;2023-12-20T00:24:06;4.40;99.90
5901;DHT22;2976;49.764;9.796;2023-12-20T00:26:31;4.40;99.90
5901;DHT22;2976;49.764;9.796;2023-12-20T00:28:57;4.40;99.90
5901;DHT22;2976;49.764;9.796;2023-12-20T00:31:22;4.40;99.90
5901;DHT22;2976;49.764;9.796;2023-12-20T00:33:48;4.40;99.90
5901;DHT22;2976;49.764;9.796;2023-12-20T00:36:14;4.40;99.90
5901;DHT22;2976;49.764;9.796;2023-12-20T00:38:39;4.40;99.90
5901;DHT22;2976;49.764;9.796;2023-12-20T00:41:05;4.50;99.90
5901;DHT22;2976;49.764;9.796;2023-12-20T00:43:30;4.40;99.90
5901;DHT22;2976;49.764;9.796;2023-12-20T00:45:56;4.40;99.90
5901;DHT22;2976;49.764;9.796;2023-12-20T00:48:21;4.50;99.90
5901;DHT22;2976;49.764;9.796;2023-12-20T00:50:47;4.50;99.90
5901;DHT22;2976;49.764;9.796;2023-12-20T00:53:12;4.50;99.90
5901;DHT22;2976;49.764;9.796;2023-12-20T00:55:38;4.50;99.90
5901;DHT22;2976;49.764;9.796;2023-12-20T00:58:03;4.50;99.90
5901;DHT22;2976;49.764;9.796;2023-12-20T01:00:29;4.50;99.90
5901;DHT22;2976;49.764;9.796;2023-12-20T01:02:54;4.50;99.90
5901;DHT22;2976;49.764;9.796;2023-12-20T01:05:20;4.50;99.90
5901;DHT22;2976;49.764;9.796;2023-12-20T01:07:48;4.40;99.90
5901;DHT22;2976;49.764;9.796;2023-12-20T01:10:14;4.40;99.90
5901;DHT22;2976;49.764;9.796;2023-12-20T01:12:40;4.40;99.90
5901;DHT22;2976;49.764;9.796;2023-12-20T01:15:05;4.40;99.90
5901;DHT22;2976;49.764;9.796;2023-12-20T01:17:31;4.30;99.90
5901;DHT22;2976;49.764;9.796;2023-12-20T01:19:56;4.30;99.90
5901;DHT22;2976;49.764;9.796;2023-12-20T01:22:23;4.30;99.90
5901;DHT22;2976;49.764;9.796;2023-12-20T01:24:49;4.30;99.90
5901;DHT22;2976;49.764;9.796;2023-12-20T01:27:14;4.20;99.90
5901;DHT22;2976;49.764;9.796;2023-12-20T01:29:40;4.20;99.90
5901;DHT22;2976;49.764;9.796;2023-12-20T01:32:06;4.20;99.90
5901;DHT22;2976;49.764;9.796;2023-12-20T01:34:31;4.20;99.90
5901;DHT22;2976;49.764;9.796;2023-12-20T01:36:57;4.20;99.90
5901;DHT22;2976;49.764;9.796;2023-12-20T01:39:23;4.20;99.90
5901;DHT22;2976;49.764;9.796;2023-12-20T01:41:48;4.20;99.90
5901;DHT22;2976;49.764;9.796;2023-12-20T01:44:14;4.20;99.90
5901;DHT22;2976;49.764;9.796;2023-12-20T01:46:39;4.10;99.90
5901;DHT22;2976;49.764;9.796;2023-12-20T01:49:05;4.10;99.90
5901;DHT22;2976;49.764;9.796;2023-12-20T01:51:31;4.10;99.90
5901;DHT22;2976;49.764;9.796;2023-12-20T01:53:57;4.10;99.90
5901;DHT22;2976;49.764;9.796;2023-12-20T01:56:25;4.10;99.90
5901;DHT22;2976;49.764;9.796;2023-12-20T01:58:51;4.10;99.90
5901;DHT22;2976;49.764;9.796;2023-12-20T02:01:17;4.10;99.90
5901;DHT22;2976;49.764;9.796;2023-12-20T02:03:44;4.10;99.90
5901;DHT22;2976;49.764;9.796;2023-12-20T02:06:10;4.10;99.90
5901;DHT22;2976;49.764;9.796;2023-12-20T02:08:36;4.10;99.90
5901;DHT22;2976;49.764;9.796;2023-12-20T02:11:02;4.10;99.90
5901;DHT22;2976;49.764;9.796;2023-12-20T02:13:28;4.10;99.90
5901;DHT22;2976;49.764;9.796;2023-12-20T02:15:54;4.10;99.90
5901;DHT22;2976;49.764;9.796;2023-12-20T02:18:20;4.10;99.90
5901;DHT22;2976;49.764;9.796;2023-12-20T02:20:46;4.10;99.90
5901;DHT22;2976;49.764;9.796;2023-12-20T02:23:11;4.10;99.90
5901;DHT22;2976;49.764;9.796;2023-12-20T02:25:37;4.10;99.90
5901;DHT22;2976;49.764;9.796;2023-12-20T02:28:03;4.10;99.90
5901;DHT22;2976;49.764;9.796;2023-12-20T02:30:29;4.10;99.90
5901;DHT22;2976;49.764;9.796;2023-12-20T02:32:55;4.10;99.90
5901;DHT22;2976;49.764;9.796;2023-12-20T02:35:21;4.00;99.90
5901;DHT22;2976;49.764;9.796;2023-12-20T02:37:46;4.00;99.90
5901;DHT22;2976;49.764;9.796;2023-12-20T02:40:12;4.00;99.90
5901;DHT22;2976;49.764;9.796;2023-12-20T02:42:37;4.00;99.90
5901;DHT22;2976;49.764;9.796;2023-12-20T02:45:03;3.90;99.90
5901;DHT22;2976;49.764;9.796;2023-12-20T02:47:29;4.00;99.90
5901;DHT22;2976;49.764;9.796;2023-12-20T02:49:55;3.90;99.90
5901;DHT22;2976;49.764;9.796;2023-12-20T02:52:25;3.90;99.90
5901;DHT22;2976;49.764;9.796;2023-12-20T02:54:51;3.90;99.90
5901;DHT22;2976;49.764;9.796;2023-12-20T02:57:16;3.90;99.90
5901;DHT22;2976;49.764;9.796;2023-12-20T02:59:42;3.90;99.90
5901;DHT22;2976;49.764;9.796;2023-12-20T03:02:07;3.90;99.90
5901;DHT22;2976;49.764;9.796;2023-12-20T03:04:33;3.80;99.90
5901;DHT22;2976;49.764;9.796;2023-12-20T03:06:58;3.80;99.90
5901;DHT22;2976;49.764;9.796;2023-12-20T03:09:24;3.80;99.90
5901;DHT22;2976;49.764;9.796;2023-12-20T03:11:49;3.80;99.90
5901;DHT22;2976;49.764;9.796;2023-12-20T03:14:15;3.80;99.90
5901;DHT22;2976;49.764;9.796;2023-12-20T03:16:41;3.80;99.90
5901;DHT22;2976;49.764;9.796;2023-12-20T03:19:06;3.80;99.90
5901;DHT22;2976;49.764;9.796;2023-12-20T03:21:32;3.80;99.90
5901;DHT22;2976;49.764;9.796;2023-12-20T03:23:57;3.80;99.90
5901;DHT22;2976;49.764;9.796;2023-12-20T03:26:23;3.80;99.90
5901;DHT22;2976;49.764;9.796;2023-12-20T03:28:48;3.80;99.90
5901;DHT22;2976;49.764;9.796;2023-12-20T03:31:14;3.80;99.90
5901;DHT22;2976;49.764;9.796;2023-12-20T03:33:40;3.80;99.90
5901;DHT22;2976;49.764;9.796;2023-12-20T03:36:05;3.80;99.90
5901;DHT22;2976;49.764;9.796;2023-12-20T03:38:31;3.80;99.90
5901;DHT22;2976;49.764;9.796;2023-12-20T03:40:57;3.80;99.90
5901;DHT22;2976;49.764;9.796;2023-12-20T03:43:22;3.80;99.90
5901;DHT22;2976;49.764;9.796;2023-12-20T03:45:48;3.80;99.90
5901;DHT22;2976;49.764;9.796;2023-12-20T03:48:13;3.80;99.90
5901;DHT22;2976;49.764;9.796;2023-12-20T03:50:39;3.80;99.90
5901;DHT22;2976;49.764;9.796;2023-12-20T03:53:04;3.80;99.90
5901;DHT22;2976;49.764;9.796;2023-12-20T03:55:30;3.80;99.90
5901;DHT22;2976;49.764;9.796;2023-12-20T03:57:55;3.80;99.90
5901;DHT22;2976;49.764;9.796;2023-12-20T04:00:21;3.80;99.90
5901;DHT22;2976;49.764;9.796;2023-12-20T04:02:47;3.80;99.90
5901;DHT22;2976;49.764;9.796;2023-12-20T04:05:12;3.80;99.90
5901;DHT22;2976;49.764;9.796;2023-12-20T04:07:38;3.80;99.90
5901;DHT22;2976;49.764;9.796;2023-12-20T04:10:04;3.80;99.90
5901;DHT22;2976;49.764;9.796;2023-12-20T04:12:31;3.80;99.90
5901;DHT22;2976;49.764;9.796;2023-12-20T04:14:57;3.80;99.90
5901;DHT22;2976;49.764;9.796;2023-12-20T04:17:23;3.80;99.90
5901;DHT22;2976;49.764;9.796;2023-12-20T04:19:49;3.80;99.90
5901;DHT22;2976;49.764;9.796;2023-12-20T04:22:15;3.80;99.90
5901;DHT22;2976;49.764;9.796;2023-12-20T04:24:41;3.70;99.90
5901;DHT22;2976;49.764;9.796;2023-12-20T04:27:08;3.70;99.90
5901;DHT22;2976;49.764;9.796;2023-12-20T04:29:34;3.70;99.90
5901;DHT22;2976;49.764;9.796;2023-12-20T04:31:59;3.80;99.90
5901;DHT22;2976;49.764;9.796;2023-12-20T04:34:25;3.80;99.90
5901;DHT22;2976;49.764;9.796;2023-12-20T04:36:51;3.70;99.90
5901;DHT22;2976;49.764;9.796;2023-12-20T04:39:17;3.70;99.90
5901;DHT22;2976;49.764;9.796;2023-12-20T04:41:42;3.70;99.90
5901;DHT22;2976;49.764;9.796;2023-12-20T04:44:08;3.70;99.90
5901;DHT22;2976;49.764;9.796;2023-12-20T04:46:33;3.70;99.90
5901;DHT22;2976;49.764;9.796;2023-12-20T04:48:59;3.70;99.90
5901;DHT22;2976;49.764;9.796;2023-12-20T04:51:24;3.70;99.90
5901;DHT22;2976;49.764;9.796;2023-12-20T04:53:50;3.70;99.90
5901;DHT22;2976;49.764;9.796;2023-12-20T04:56:15;3.70;99.90
5901;DHT22;2976;49.764;9.796;2023-12-20T04:58:42;3.70;99.90
5901;DHT22;2976;49.764;9.796;2023-12-20T05:01:08;3.70;99.90
5901;DHT22;2976;49.764;9.796;2023-12-20T05:03:34;3.70;99.90
5901;DHT22;2976;49.764;9.796;2023-12-20T05:06:00;3.80;99.90
5901;DHT22;2976;49.764;9.796;2023-12-20T05:08:25;3.80;99.90
5901;DHT22;2976;49.764;9.796;2023-12-20T05:10:54;3.80;99.90
5901;DHT22;2976;49.764;9.796;2023-12-20T05:13:20;3.80;99.90
5901;DHT22;2976;49.764;9.796;2023-12-20T05:15:45;3.80;99.90
5901;DHT22;2976;49.764;9.796;2023-12-20T05:18:12;3.80;99.90
5901;DHT22;2976;49.764;9.796;2023-12-20T05:20:38;3.80;99.90
5901;DHT22;2976;49.764;9.796;2023-12-20T05:23:04;3.90;99.90
5901;DHT22;2976;49.764;9.796;2023-12-20T05:25:29;3.90;99.90
5901;DHT22;2976;49.764;9.796;2023-12-20T05:27:55;3.90;99.90
5901;DHT22;2976;49.764;9.796;2023-12-20T05:30:21;4.00;99.90
5901;DHT22;2976;49.764;9.796;2023-12-20T05:32:47;4.00;99.90
5901;DHT22;2976;49.764;9.796;2023-12-20T05:35:12;4.00;99.90
5901;DHT22;2976;49.764;9.796;2023-12-20T05:37:38;4.00;99.90
5901;DHT22;2976;49.764;9.796;2023-12-20T05:40:04;4.00;99.90
5901;DHT22;2976;49.764;9.796;2023-12-20T05:42:30;4.00;99.90
5901;DHT22;2976;49.764;9.796;2023-12-20T05:44:55;4.00;99.90
5901;DHT22;2976;49.764;9.796;2023-12-20T05:47:21;4.00;99.90
5901;DHT22;2976;49.764;9.796;2023-12-20T05:49:46;4.00;99.90
5901;DHT22;2976;49.764;9.796;2023-12-20T05:52:12;4.00;99.90
5901;DHT22;2976;49.764;9.796;2023-12-20T05:54:37;4.00;99.90
5901;DHT22;2976;49.764;9.796;2023-12-20T05:57:03;4.00;99.90
5901;DHT22;2976;49.764;9.796;2023-12-20T05:59:29;4.10;99.90
5901;DHT22;2976;49.764;9.796;2023-12-20T06:01:54;4.00;99.90
5901;DHT22;2976;49.764;9.796;2023-12-20T06:04:20;4.00;99.90
5901;DHT22;2976;49.764;9.796;2023-12-20T06:06:45;4.10;99.90
5901;DHT22;2976;49.764;9.796;2023-12-20T06:09:11;4.10;99.90
5901;DHT22;2976;49.764;9.796;2023-12-20T06:11:37;4.10;99.90
5901;DHT22;2976;49.764;9.796;2023-12-20T06:14:02;4.10;99.90
5901;DHT22;2976;49.764;9.796;2023-12-20T06:16:28;4.10;99.90
5901;DHT22;2976;49.764;9.796;2023-12-20T06:18:53;4.10;99.90
5901;DHT22;2976;49.764;9.796;2023-12-20T06:21:19;4.10;99.90
5901;DHT22;2976;49.764;9.796;2023-12-20T06:23:44;4.20;99.90
5901;DHT22;2976;49.764;9.796;2023-12-20T06:26:10;4.20;99.90
5901;DHT22;2976;49.764;9.796;2023-12-20T06:28:35;4.20;99.90
5901;DHT22;2976;49.764;9.796;2023-12-20T06:31:01;4.20;99.90
5901;DHT22;2976;49.764;9.796;2023-12-20T06:33:27;4.20;99.90
5901;DHT22;2976;49.764;9.796;2023-12-20T06:35:53;4.30;99.90
5901;DHT22;2976;49.764;9.796;2023-12-20T06:38:19;4.30;99.90
5901;DHT22;2976;49.764;9.796;2023-12-20T06:40:44;4.30;99.90
5901;DHT22;2976;49.764;9.796;2023-12-20T06:43:11;4.30;99.90
5901;DHT22;2976;49.764;9.796;2023-12-20T06:45:37;4.30;99.90
5901;DHT22;2976;49.764;9.796;2023-12-20T06:48:03;4.30;99.90
5901;DHT22;2976;49.764;9.796;2023-12-20T06:50:29;4.30;99.90
5901;DHT22;2976;49.764;9.796;2023-12-20T06:52:54;4.30;99.90
5901;DHT22;2976;49.764;9.796;2023-12-20T06:55:20;4.30;99.90
5901;DHT22;2976;49.764;9.796;2023-12-20T06:57:45;4.30;99.90
5901;DHT22;2976;49.764;9.796;2023-12-20T07:00:11;4.30;99.90
5901;DHT22;2976;49.764;9.796;2023-12-20T07:02:37;4.30;99.90
5901;DHT22;2976;49.764;9.796;2023-12-20T07:05:03;4.30;99.90
5901;DHT22;2976;49.764;9.796;2023-12-20T07:07:29;4.20;99.90
5901;DHT22;2976;49.764;9.796;2023-12-20T07:09:55;4.20;99.90
5901;DHT22;2976;49.764;9.796;2023-12-20T07:12:20;4.10;99.90
5901;DHT22;2976;49.764;9.796;2023-12-20T07:14:46;4.20;99.90
5901;DHT22;2976;49.764;9.796;2023-12-20T07:17:12;4.10;99.90
5901;DHT22;2976;49.764;9.796;2023-12-20T07:19:40;4.10;99.90
5901;DHT22;2976;49.764;9.796;2023-12-20T07:22:06;4.20;99.90
5901;DHT22;2976;49.764;9.796;2023-12-20T07:24:32;4.10;99.90
5901;DHT22;2976;49.764;9.796;2023-12-20T07:26:59;4.00;99.90
5901;DHT22;2976;49.764;9.796;2023-12-20T07:29:25;3.90;99.90
5901;DHT22;2976;49.764;9.796;2023-12-20T07:31:50;3.80;99.90
5901;DHT22;2976;49.764;9.796;2023-12-20T07:34:17;3.70;99.90
5901;DHT22;2976;49.764;9.796;2023-12-20T07:36:43;3.60;99.90
5901;DHT22;2976;49.764;9.796;2023-12-20T07:39:09;3.50;99.90
5901;DHT22;2976;49.764;9.796;2023-12-20T07:41:34;3.50;99.90
5901;DHT22;2976;49.764;9.796;2023-12-20T07:44:00;3.50;99.90
5901;DHT22;2976;49.764;9.796;2023-12-20T07:46:25;3.40;99.90
5901;DHT22;2976;49.764;9.796;2023-12-20T07:48:51;3.40;99.90
5901;DHT22;2976;49.764;9.796;2023-12-20T07:51:16;3.50;99.90
5901;DHT22;2976;49.764;9.796;2023-12-20T07:53:42;3.50;99.90
5901;DHT22;2976;49.764;9.796;2023-12-20T07:56:18;3.60;99.90
5901;DHT22;2976;49.764;9.796;2023-12-20T07:58:45;3.60;99.90
5901;DHT22;2976;49.764;9.796;2023-12-20T08:01:11;3.60;99.90
5901;DHT22;2976;49.764;9.796;2023-12-20T08:03:37;3.60;99.90
5901;DHT22;2976;49.764;9.796;2023-12-20T08:06:03;3.70;99.90
5901;DHT22;2976;49.764;9.796;2023-12-20T08:08:28;3.70;99.90
5901;DHT22;2976;49.764;9.796;2023-12-20T08:10:54;3.80;99.90
5901;DHT22;2976;49.764;9.796;2023-12-20T08:13:20;3.90;99.90
5901;DHT22;2976;49.764;9.796;2023-12-20T08:15:50;4.00;99.90
5901;DHT22;2976;49.764;9.796;2023-12-20T08:18:15;4.10;99.90
5901;DHT22;2976;49.764;9.796;2023-12-20T08:20:41;4.10;99.90
5901;DHT22;2976;49.764;9.796;2023-12-20T08:23:06;4.20;99.90
5901;DHT22;2976;49.764;9.796;2023-12-20T08:25:32;4.30;99.90
5901;DHT22;2976;49.764;9.796;2023-12-20T08:27:57;4.30;99.90
5901;DHT22;2976;49.764;9.796;2023-12-20T08:30:23;4.40;99.90
5901;DHT22;2976;49.764;9.796;2023-12-20T08:32:48;4.30;99.90
5901;DHT22;2976;49.764;9.796;2023-12-20T08:35:14;4.40;99.90
5901;DHT22;2976;49.764;9.796;2023-12-20T08:37:40;4.50;99.90
5901;DHT22;2976;49.764;9.796;2023-12-20T08:40:06;4.60;99.90
5901;DHT22;2976;49.764;9.796;2023-12-20T08:42:31;4.80;99.90
5901;DHT22;2976;49.764;9.796;2023-12-20T08:44:58;4.90;99.90
5901;DHT22;2976;49.764;9.796;2023-12-20T08:47:26;5.00;99.90
5901;DHT22;2976;49.764;9.796;2023-12-20T08:49:52;5.00;99.90
5901;DHT22;2976;49.764;9.796;2023-12-20T08:52:24;4.90;99.90
5901;DHT22;2976;49.764;9.796;2023-12-20T08:54:50;4.90;99.90
5901;DHT22;2976;49.764;9.796;2023-12-20T08:57:20;4.70;99.90
5901;DHT22;2976;49.764;9.796;2023-12-20T08:59:47;4.70;99.90
5901;DHT22;2976;49.764;9.796;2023-12-20T09:02:13;4.60;99.90
5901;DHT22;2976;49.764;9.796;2023-12-20T09:04:39;4.50;99.90
5901;DHT22;2976;49.764;9.796;2023-12-20T09:07:05;4.50;99.90
5901;DHT22;2976;49.764;9.796;2023-12-20T09:09:30;4.40;99.90
5901;DHT22;2976;49.764;9.796;2023-12-20T09:11:57;4.30;99.90
5901;DHT22;2976;49.764;9.796;2023-12-20T09:14:23;4.40;99.90
5901;DHT22;2976;49.764;9.796;2023-12-20T09:16:49;4.50;99.90
5901;DHT22;2976;49.764;9.796;2023-12-20T09:19:16;4.70;99.90
5901;DHT22;2976;49.764;9.796;2023-12-20T09:21:42;4.80;99.90
5901;DHT22;2976;49.764;9.796;2023-12-20T09:24:07;4.90;99.90
5901;DHT22;2976;49.764;9.796;2023-12-20T09:26:34;5.10;99.90
5901;DHT22;2976;49.764;9.796;2023-12-20T09:29:00;5.00;99.90
5901;DHT22;2976;49.764;9.796;2023-12-20T09:31:25;5.10;99.90
5901;DHT22;2976;49.764;9.796;2023-12-20T09:33:51;5.10;99.90
5901;DHT22;2976;49.764;9.796;2023-12-20T09:36:16;5.20;99.90
5901;DHT22;2976;49.764;9.796;2023-12-20T09:38:42;5.20;99.90
5901;DHT22;2976;49.764;9.796;2023-12-20T09:41:08;5.10;99.90
5901;DHT22;2976;49.764;9.796;2023-12-20T09:43:37;5.00;99.90
5901;DHT22;2976;49.764;9.796;2023-12-20T09:46:06;4.90;99.90
5901;DHT22;2976;49.764;9.796;2023-12-20T09:48:36;4.90;99.90
5901;DHT22;2976;49.764;9.796;2023-12-20T09:51:02;4.90;99.90
5901;DHT22;2976;49.764;9.796;2023-12-20T09:53:29;4.90;99.90
5901;DHT22;2976;49.764;9.796;2023-12-20T09:55:58;4.90;99.90
5901;DHT22;2976;49.764;9.796;2023-12-20T09:58:27;5.00;99.90
5901;DHT22;2976;49.764;9.796;2023-12-20T10:00:53;5.00;99.90
5901;DHT22;2976;49.764;9.796;2023-12-20T10:03:23;5.00;99.90
5901;DHT22;2976;49.764;9.796;2023-12-20T10:05:52;5.00;99.90
5901;DHT22;2976;49.764;9.796;2023-12-20T10:08:21;5.00;99.90
5901;DHT22;2976;49.764;9.796;2023-12-20T10:10:47;5.10;99.90
5901;DHT22;2976;49.764;9.796;2023-12-20T10:13:13;5.10;99.90
5901;DHT22;2976;49.764;9.796;2023-12-20T10:15:38;5.10;99.90
5901;DHT22;2976;49.764;9.796;2023-12-20T10:18:05;5.10;99.90
5901;DHT22;2976;49.764;9.796;2023-12-20T10:20:31;5.10;99.90
5901;DHT22;2976;49.764;9.796;2023-12-20T10:22:58;5.10;99.90
5901;DHT22;2976;49.764;9.796;2023-12-20T10:25:24;5.10;99.90
5901;DHT22;2976;49.764;9.796;2023-12-20T10:28:15;5.10;99.90
5901;DHT22;2976;49.764;9.796;2023-12-20T10:30:44;5.10;99.90
5901;DHT22;2976;49.764;9.796;2023-12-20T10:33:10;5.10;99.90
5901;DHT22;2976;49.764;9.796;2023-12-20T10:35:37;5.20;99.90
5901;DHT22;2976;49.764;9.796;2023-12-20T10:38:04;5.20;99.90
5901;DHT22;2976;49.764;9.796;2023-12-20T10:40:31;5.30;99.90
5901;DHT22;2976;49.764;9.796;2023-12-20T10:42:59;5.30;99.90
5901;DHT22;2976;49.764;9.796;2023-12-20T10:45:26;5.30;99.90
5901;DHT22;2976;49.764;9.796;2023-12-20T10:47:52;5.30;99.90
5901;DHT22;2976;49.764;9.796;2023-12-20T10:50:19;5.30;99.90
5901;DHT22;2976;49.764;9.796;2023-12-20T10:52:47;5.30;99.90
5901;DHT22;2976;49.764;9.796;2023-12-20T10:55:13;5.30;99.90
5901;DHT22;2976;49.764;9.796;2023-12-20T10:57:39;5.30;99.90
5901;DHT22;2976;49.764;9.796;2023-12-20T11:00:08;5.40;99.90
5901;DHT22;2976;49.764;9.796;2023-12-20T11:02:39;5.40;99.90
5901;DHT22;2976;49.764;9.796;2023-12-20T11:08:01;5.40;99.90
5901;DHT22;2976;49.764;9.796;2023-12-20T11:10:34;5.40;99.90
5901;DHT22;2976;49.764;9.796;2023-12-20T11:13:08;5.40;99.90
5901;DHT22;2976;49.764;9.796;2023-12-20T11:15:36;5.40;99.90
5901;DHT22;2976;49.764;9.796;2023-12-20T11:18:02;5.40;99.90
5901;DHT22;2976;49.764;9.796;2023-12-20T11:20:39;5.40;99.90
5901;DHT22;2976;49.764;9.796;2023-12-20T11:23:06;5.40;99.90
5901;DHT22;2976;49.764;9.796;2023-12-20T11:28:14;5.50;99.90
5901;DHT22;2976;49.764;9.796;2023-12-20T11:33:08;5.40;99.90
5901;DHT22;2976;49.764;9.796;2023-12-20T11:35:34;5.30;99.90
5901;DHT22;2976;49.764;9.796;2023-12-20T11:38:02;5.30;99.90
5901;DHT22;2976;49.764;9.796;2023-12-20T11:40:27;5.40;99.90
5901;DHT22;2976;49.764;9.796;2023-12-20T11:42:53;5.40;99.90
5901;DHT22;2976;49.764;9.796;2023-12-20T11:45:23;5.40;99.90
5901;DHT22;2976;49.764;9.796;2023-12-20T11:47:50;5.40;99.90
5901;DHT22;2976;49.764;9.796;2023-12-20T11:50:20;5.40;99.90
5901;DHT22;2976;49.764;9.796;2023-12-20T11:52:49;5.40;99.90
5901;DHT22;2976;49.764;9.796;2023-12-20T11:55:15;5.50;99.90
5901;DHT22;2976;49.764;9.796;2023-12-20T11:57:42;5.50;99.90
5901;DHT22;2976;49.764;9.796;2023-12-20T12:00:08;5.60;99.90
5901;DHT22;2976;49.764;9.796;2023-12-20T12:02:34;5.50;99.90
5901;DHT22;2976;49.764;9.796;2023-12-20T12:04:59;5.50;99.90
5901;DHT22;2976;49.764;9.796;2023-12-20T12:07:25;5.50;99.90
5901;DHT22;2976;49.764;9.796;2023-12-20T12:09:51;5.50;99.90
5901;DHT22;2976;49.764;9.796;2023-12-20T12:12:17;5.40;99.90
5901;DHT22;2976;49.764;9.796;2023-12-20T12:14:44;5.40;99.90
5901;DHT22;2976;49.764;9.796;2023-12-20T12:17:13;5.40;99.90
5901;DHT22;2976;49.764;9.796;2023-12-20T12:19:40;5.40;99.90
5901;DHT22;2976;49.764;9.796;2023-12-20T12:22:10;5.50;99.90
5901;DHT22;2976;49.764;9.796;2023-12-20T12:24:45;5.50;99.90
5901;DHT22;2976;49.764;9.796;2023-12-20T12:27:12;5.50;99.90
5901;DHT22;2976;49.764;9.796;2023-12-20T12:29:38;5.50;99.90
5901;DHT22;2976;49.764;9.796;2023-12-20T12:32:08;5.50;99.90
5901;DHT22;2976;49.764;9.796;2023-12-20T12:34:36;5.50;99.90
5901;DHT22;2976;49.764;9.796;2023-12-20T12:37:03;5.50;99.90
5901;DHT22;2976;49.764;9.796;2023-12-20T12:39:30;5.50;99.90
5901;DHT22;2976;49.764;9.796;2023-12-20T12:41:56;5.40;99.90
5901;DHT22;2976;49.764;9.796;2023-12-20T12:44:22;5.30;99.90
5901;DHT22;2976;49.764;9.796;2023-12-20T12:46:50;5.40;99.90
5901;DHT22;2976;49.764;9.796;2023-12-20T12:49:16;5.40;99.90
5901;DHT22;2976;49.764;9.796;2023-12-20T12:51:42;5.30;99.90
5901;DHT22;2976;49.764;9.796;2023-12-20T12:54:09;5.30;99.90
5901;DHT22;2976;49.764;9.796;2023-12-20T12:56:35;5.30;99.90
5901;DHT22;2976;49.764;9.796;2023-12-20T12:59:01;5.30;99.90
5901;DHT22;2976;49.764;9.796;2023-12-20T13:01:27;5.30;99.90
5901;DHT22;2976;49.764;9.796;2023-12-20T13:03:53;5.30;99.90
5901;DHT22;2976;49.764;9.796;2023-12-20T13:06:19;5.30;99.90
5901;DHT22;2976;49.764;9.796;2023-12-20T13:08:45;5.30;99.90
5901;DHT22;2976;49.764;9.796;2023-12-20T13:11:10;5.30;99.90
5901;DHT22;2976;49.764;9.796;2023-12-20T13:13:36;5.30;99.90
5901;DHT22;2976;49.764;9.796;2023-12-20T13:16:02;5.30;99.90
5901;DHT22;2976;49.764;9.796;2023-12-20T13:18:27;5.30;99.90
5901;DHT22;2976;49.764;9.796;2023-12-20T13:20:53;5.20;99.90
5901;DHT22;2976;49.764;9.796;2023-12-20T13:23:19;5.30;99.90
5901;DHT22;2976;49.764;9.796;2023-12-20T13:25:45;5.20;99.90
5901;DHT22;2976;49.764;9.796;2023-12-20T13:28:13;5.20;99.90
5901;DHT22;2976;49.764;9.796;2023-12-20T13:30:39;5.20;99.90
5901;DHT22;2976;49.764;9.796;2023-12-20T13:33:06;5.20;99.90
5901;DHT22;2976;49.764;9.796;2023-12-20T13:35:32;5.20;99.90
5901;DHT22;2976;49.764;9.796;2023-12-20T13:37:58;5.10;99.90
5901;DHT22;2976;49.764;9.796;2023-12-20T13:40:24;5.10;99.90
5901;DHT22;2976;49.764;9.796;2023-12-20T13:42:50;5.10;99.90
5901;DHT22;2976;49.764;9.796;2023-12-20T13:45:15;5.00;99.90
5901;DHT22;2976;49.764;9.796;2023-12-20T13:47:41;4.90;99.90
5901;DHT22;2976;49.764;9.796;2023-12-20T13:50:07;4.90;99.90
5901;DHT22;2976;49.764;9.796;2023-12-20T13:52:32;4.90;99.90
5901;DHT22;2976;49.764;9.796;2023-12-20T13:54:58;5.00;99.90
5901;DHT22;2976;49.764;9.796;2023-12-20T13:57:23;5.00;99.90
5901;DHT22;2976;49.764;9.796;2023-12-20T13:59:49;5.10;99.90
5901;DHT22;2976;49.764;9.796;2023-12-20T14:02:15;5.10;99.90
5901;DHT22;2976;49.764;9.796;2023-12-20T14:04:41;5.20;99.90
5901;DHT22;2976;49.764;9.796;2023-12-20T14:07:07;5.20;99.90
5901;DHT22;2976;49.764;9.796;2023-12-20T14:09:33;5.20;99.90
5901;DHT22;2976;49.764;9.796;2023-12-20T14:11:59;5.20;99.90
5901;DHT22;2976;49.764;9.796;2023-12-20T14:14:24;5.20;99.90
5901;DHT22;2976;49.764;9.796;2023-12-20T14:16:50;5.10;99.90
5901;DHT22;2976;49.764;9.796;2023-12-20T14:19:16;5.10;99.90
5901;DHT22;2976;49.764;9.796;2023-12-20T14:21:42;5.00;99.90
5901;DHT22;2976;49.764;9.796;2023-12-20T14:24:07;5.00;99.90
5901;DHT22;2976;49.764;9.796;2023-12-20T14:26:33;5.00;99.90
5901;DHT22;2976;49.764;9.796;2023-12-20T14:28:58;5.00;99.90
5901;DHT22;2976;49.764;9.796;2023-12-20T14:31:24;5.00;99.90
5901;DHT22;2976;49.764;9.796;2023-12-20T14:33:50;5.00;99.90
5901;DHT22;2976;49.764;9.796;2023-12-20T14:36:18;5.10;99.90
5901;DHT22;2976;49.764;9.796;2023-12-20T14:38:45;5.10;99.90
5901;DHT22;2976;49.764;9.796;2023-12-20T14:41:12;5.10;99.90
5901;DHT22;2976;49.764;9.796;2023-12-20T14:43:37;5.10;99.90
5901;DHT22;2976;49.764;9.796;2023-12-20T14:46:03;5.10;99.90
5901;DHT22;2976;49.764;9.796;2023-12-20T14:48:30;5.10;99.90
5901;DHT22;2976;49.764;9.796;2023-12-20T14:50:57;5.10;99.90
5901;DHT22;2976;49.764;9.796;2023-12-20T14:53:24;5.10;99.90
5901;DHT22;2976;49.764;9.796;2023-12-20T14:55:50;5.10;99.90
5901;DHT22;2976;49.764;9.796;2023-12-20T14:58:17;5.10;99.90
5901;DHT22;2976;49.764;9.796;2023-12-20T15:00:42;5.10;99.90
5901;DHT22;2976;49.764;9.796;2023-12-20T15:03:09;5.10;99.90
5901;DHT22;2976;49.764;9.796;2023-12-20T15:05:34;5.00;99.90
5901;DHT22;2976;49.764;9.796;2023-12-20T15:08:01;5.00;99.90
5901;DHT22;2976;49.764;9.796;2023-12-20T15:10:26;4.90;99.90
5901;DHT22;2976;49.764;9.796;2023-12-20T15:12:52;5.00;99.90
5901;DHT22;2976;49.764;9.796;2023-12-20T15:15:17;5.00;99.90
5901;DHT22;2976;49.764;9.796;2023-12-20T15:17:44;4.90;99.90
5901;DHT22;2976;49.764;9.796;2023-12-20T15:20:10;4.90;99.90
5901;DHT22;2976;49.764;9.796;2023-12-20T15:22:36;4.80;99.90
5901;DHT22;2976;49.764;9.796;2023-12-20T15:25:03;4.80;99.90
5901;DHT22;2976;49.764;9.796;2023-12-20T15:27:30;4.80;99.90
5901;DHT22;2976;49.764;9.796;2023-12-20T15:29:56;4.90;99.90
5901;DHT22;2976;49.764;9.796;2023-12-20T15:32:22;4.90;99.90
5901;DHT22;2976;49.764;9.796;2023-12-20T15:34:48;4.90;99.90
5901;DHT22;2976;49.764;9.796;2023-12-20T15:37:15;4.80;99.90
5901;DHT22;2976;49.764;9.796;2023-12-20T15:39:41;4.80;99.90
5901;DHT22;2976;49.764;9.796;2023-12-20T15:42:08;4.70;99.90
5901;DHT22;2976;49.764;9.796;2023-12-20T15:44:33;4.70;99.90
5901;DHT22;2976;49.764;9.796;2023-12-20T15:46:59;4.70;99.90
5901;DHT22;2976;49.764;9.796;2023-12-20T15:49:24;4.70;99.90
5901;DHT22;2976;49.764;9.796;2023-12-20T15:51:50;4.70;99.90
5901;DHT22;2976;49.764;9.796;2023-12-20T15:54:15;4.70;99.90
5901;DHT22;2976;49.764;9.796;2023-12-20T15:56:41;4.60;99.90
5901;DHT22;2976;49.764;9.796;2023-12-20T15:59:10;4.60;99.90
5901;DHT22;2976;49.764;9.796;2023-12-20T16:01:35;4.70;99.90
5901;DHT22;2976;49.764;9.796;2023-12-20T16:04:01;4.60;99.90
5901;DHT22;2976;49.764;9.796;2023-12-20T16:06:27;4.60;99.90
5901;DHT22;2976;49.764;9.796;2023-12-20T16:08:53;4.70;99.90
5901;DHT22;2976;49.764;9.796;2023-12-20T16:11:18;4.70;99.90
5901;DHT22;2976;49.764;9.796;2023-12-20T16:13:45;4.70;99.90
5901;DHT22;2976;49.764;9.796;2023-12-20T16:16:11;4.60;99.90
5901;DHT22;2976;49.764;9.796;2023-12-20T16:18:37;4.60;99.90